Woodburn, Kentucky
Current Conditions -  °F | °C
As of 4:53 PM on Saturday 22 Nov 2014 (Local Time) from KBWG Reporting Station
Clear Clear  
Wind Chill: 58°   Ceiling: Unl
Heat Index: 58°   Visibility: 10mi
Dew Point: 32°   Wind: 7mph
Humidity: 37%   Direction: 160°SSE
Pressure: 30.12"   Gusts: NA
Location:  36.84°N, 86.53°W
Report Text: KBWG 222253Z AUTO 16006KT 10SM CLR 14/00 A3012 RMK AO2 SLP199 T01440000
Loading
Personal Weather Stations






























Interactive Weather Map New forecast layout! Learn more

10-Day Weather Forecast

Advertisements
Track Severe Weather on mobile